Time;durP1;ratioP1;P1;durP2;ratioP2;P2;SDS_P1;SDS_P2;PMS_P1;PMS_P2;Temp;Humidity;BMP_temperature;BMP_pressure;BME280_temperature;BME280_humidity;BME280_pressure;Samples;Min_cycle;Max_cycle;Signal;HPM_P1;HPM_P2
2023/07/02 00:00:54;;;;;;;24.77;9.38;;;;;;;16.77;89.60;100678.56;4998962;28;20109;-62
2023/07/02 00:03:21;;;;;;;20.15;9.02;;;;;;;16.75;90.22;100668.06;4999069;28;20032;-62
2023/07/02 00:05:49;;;;;;;22.20;9.02;;;;;;;16.73;89.51;100664.56;4999213;28;20048;-62
2023/07/02 00:08:15;;;;;;;20.98;9.00;;;;;;;16.71;89.65;100668.94;4980782;28;20045;-62
2023/07/02 00:10:40;;;;;;;23.42;9.80;;;;;;;16.69;89.54;100658.44;4998005;28;20061;-62
2023/07/02 00:13:06;;;;;;;24.25;9.63;;;;;;;16.67;90.00;100665.47;4997246;28;20051;-62
2023/07/02 00:15:31;;;;;;;19.90;9.13;;;;;;;16.68;90.25;100666.34;4998578;28;20036;-62
2023/07/02 00:17:57;;;;;;;19.10;9.45;;;;;;;16.66;89.59;100662.84;4998630;28;20112;-62
2023/07/02 00:20:22;;;;;;;23.55;9.15;;;;;;;16.65;89.68;100661.09;4998291;28;20029;-62
2023/07/02 00:22:48;;;;;;;20.42;10.13;;;;;;;16.63;89.73;100666.34;4998615;28;20033;-62
2023/07/02 00:25:14;;;;;;;20.13;9.15;;;;;;;16.64;89.16;100673.38;4997681;28;20026;-62
2023/07/02 00:27:40;;;;;;;21.48;9.70;;;;;;;16.61;89.94;100659.34;4998731;28;20048;-62
2023/07/02 00:30:06;;;;;;;21.67;9.38;;;;;;;16.62;89.66;100650.59;4996996;28;20038;-62
2023/07/02 00:32:31;;;;;;;27.70;10.38;;;;;;;16.58;89.48;100649.72;4998146;28;20030;-62
2023/07/02 00:34:56;;;;;;;25.45;10.85;;;;;;;16.56;90.15;100635.69;5001412;28;20024;-62
2023/07/02 00:37:22;;;;;;;29.10;11.13;;;;;;;16.59;89.14;100642.72;5001274;28;20417;-62
2023/07/02 00:39:47;;;;;;;24.33;11.32;;;;;;;16.55;88.88;100638.34;4998982;28;20041;-62
2023/07/02 00:42:13;;;;;;;28.50;11.60;;;;;;;16.52;89.18;100645.38;4999964;28;20069;-62
2023/07/02 00:44:40;;;;;;;24.20;10.85;;;;;;;16.51;88.99;100651.50;5001535;28;20144;-62
2023/07/02 00:47:11;;;;;;;30.73;11.63;;;;;;;16.48;89.50;100654.16;5000500;28;20038;-62
2023/07/02 00:49:36;;;;;;;28.83;11.88;;;;;;;16.48;89.57;100663.78;5001114;28;20494;-62
2023/07/02 00:52:02;;;;;;;29.92;12.02;;;;;;;16.46;89.08;100669.03;4980183;28;20028;-62
2023/07/02 00:54:28;;;;;;;29.02;11.55;;;;;;;16.40;89.79;100671.72;5000391;28;20486;-62
2023/07/02 00:56:54;;;;;;;29.67;12.43;;;;;;;16.40;89.66;100673.47;4998759;28;20068;-62
2023/07/02 00:59:19;;;;;;;32.10;12.80;;;;;;;16.39;89.35;100680.47;5001164;28;20038;-62
2023/07/02 01:01:49;;;;;;;26.92;12.18;;;;;;;16.41;89.62;100677.81;5001577;28;20026;-62
2023/07/02 01:04:17;;;;;;;28.50;12.52;;;;;;;16.42;88.48;100680.44;4999505;28;20489;-63
2023/07/02 01:06:43;;;;;;;33.38;13.18;;;;;;;16.34;89.24;100674.38;4983929;28;20097;-63
2023/07/02 01:09:09;;;;;;;33.47;12.55;;;;;;;16.30;89.83;100676.09;5000982;28;20041;-63
2023/07/02 01:11:36;;;;;;;29.20;12.63;;;;;;;16.30;89.77;100680.50;5001077;28;20038;-63
2023/07/02 01:14:07;;;;;;;32.08;14.02;;;;;;;16.26;89.85;100684.00;5001144;28;20503;-62
2023/07/02 01:16:35;;;;;;;32.25;13.18;;;;;;;16.29;89.40;100684.00;4999657;28;20036;-63
2023/07/02 01:19:05;;;;;;;35.45;14.82;;;;;;;16.19;90.18;100680.50;5001026;28;20029;-63
2023/07/02 01:21:32;;;;;;;34.40;14.90;;;;;;;16.21;89.82;100685.78;5001257;28;20037;-63
2023/07/02 01:24:00;;;;;;;32.97;14.55;;;;;;;16.17;90.40;100685.78;5000973;28;20041;-62
2023/07/02 01:26:29;;;;;;;33.08;14.70;;;;;;;16.10;90.88;100694.56;5000239;28;20030;-60
2023/07/02 01:28:54;;;;;;;33.15;15.15;;;;;;;16.12;90.34;100690.19;5001198;28;20026;-60
2023/07/02 01:31:24;;;;;;;39.65;14.88;;;;;;;16.10;90.25;100693.69;4999231;28;20049;-60
2023/07/02 01:33:50;;;;;;;37.50;15.68;;;;;;;16.09;90.67;100699.81;4999233;28;20087;-60
2023/07/02 01:36:15;;;;;;;33.30;15.02;;;;;;;16.02;90.98;100696.34;4998516;28;20513;-60
2023/07/02 01:38:41;;;;;;;35.13;15.45;;;;;;;16.03;91.86;100698.06;5000597;28;20041;-61
2023/07/02 01:41:06;;;;;;;36.97;15.75;;;;;;;15.98;91.76;100702.47;4997890;28;20065;-60
2023/07/02 01:43:32;;;;;;;34.67;15.85;;;;;;;15.94;91.84;100696.31;4999601;28;20053;-60
2023/07/02 01:45:57;;;;;;;42.47;15.93;;;;;;;15.96;92.23;100696.31;4999062;28;20061;-60
2023/07/02 01:48:22;;;;;;;43.47;16.75;;;;;;;15.91;92.23;100698.09;4999336;28;20034;-60
2023/07/02 01:50:48;;;;;;;40.75;16.95;;;;;;;15.94;92.34;100704.22;4999764;28;20126;-60
2023/07/02 01:53:13;;;;;;;39.55;16.67;;;;;;;15.89;92.40;100703.34;4999738;28;20033;-60
2023/07/02 01:55:38;;;;;;;40.13;16.60;;;;;;;15.94;92.27;100696.31;5001458;28;20084;-61
2023/07/02 01:58:04;;;;;;;40.33;16.83;;;;;;;15.88;92.85;100698.09;4999850;28;20824;-60
2023/07/02 02:00:29;;;;;;;46.05;18.05;;;;;;;15.80;93.48;100704.22;4999981;28;20490;-60
2023/07/02 02:02:54;;;;;;;41.80;17.38;;;;;;;15.77;93.32;100696.31;5000410;28;20564;-60
2023/07/02 02:05:20;;;;;;;43.20;17.00;;;;;;;15.77;93.70;100706.84;4982282;28;20030;-61
2023/07/02 02:07:45;;;;;;;37.65;17.23;;;;;;;15.75;94.20;100705.06;5000085;28;20029;-60
2023/07/02 02:10:10;;;;;;;37.58;17.33;;;;;;;15.75;94.03;100703.31;4999813;28;20052;-60
2023/07/02 02:12:35;;;;;;;40.90;18.17;;;;;;;15.73;94.56;100710.31;5000056;28;20548;-60
2023/07/02 02:15:01;;;;;;;38.90;17.80;;;;;;;15.75;94.46;100711.19;4999197;28;20017;-60
2023/07/02 02:17:26;;;;;;;41.30;17.98;;;;;;;15.73;94.23;100704.19;5000264;28;20034;-60
2023/07/02 02:19:51;;;;;;;45.70;17.50;;;;;;;15.73;94.41;100702.44;5000344;28;20041;-60
2023/07/02 02:22:17;;;;;;;41.03;16.65;;;;;;;15.74;94.38;100706.84;4982200;28;20034;-60
2023/07/02 02:24:42;;;;;;;37.53;16.88;;;;;;;15.70;94.24;100704.19;4979882;28;20109;-60
2023/07/02 02:27:09;;;;;;;43.35;16.85;;;;;;;15.73;94.54;100706.81;4999235;28;20026;-60
2023/07/02 02:29:34;;;;;;;43.60;17.75;;;;;;;15.65;94.97;100697.16;4999760;28;20026;-60
2023/07/02 02:32:00;;;;;;;39.90;17.13;;;;;;;15.60;94.94;100708.59;4998184;28;20441;-60
2023/07/02 02:34:25;;;;;;;42.92;17.67;;;;;;;15.59;94.87;100712.06;4999204;28;20560;-60
2023/07/02 02:36:50;;;;;;;46.05;18.10;;;;;;;15.56;95.38;100712.94;4998435;28;20021;-60
2023/07/02 02:39:15;;;;;;;39.55;16.98;;;;;;;15.53;95.42;100718.19;4997449;28;20437;-61
2023/07/02 02:41:41;;;;;;;38.88;17.98;;;;;;;15.51;95.66;100713.81;4997862;28;20115;-60
2023/07/02 02:44:06;;;;;;;47.22;18.80;;;;;;;15.46;95.82;100721.69;4998217;28;20029;-60
2023/07/02 02:46:31;;;;;;;44.88;18.50;;;;;;;15.43;96.08;100719.06;4999437;28;20105;-60
2023/07/02 02:48:57;;;;;;;43.35;18.83;;;;;;;15.37;96.18;100725.16;4998461;28;20030;-61
2023/07/02 02:51:22;;;;;;;49.80;19.52;;;;;;;15.34;96.95;100724.28;4998651;28;20036;-60
2023/07/02 02:53:47;;;;;;;44.78;18.88;;;;;;;15.32;96.38;100726.91;4998140;28;20626;-60
2023/07/02 02:56:13;;;;;;;45.00;18.60;;;;;;;15.32;96.28;100732.16;4998008;28;20030;-60
2023/07/02 02:58:39;;;;;;;41.15;18.95;;;;;;;15.29;96.28;100734.78;4997638;28;20548;-60
2023/07/02 03:01:10;;;;;;;38.33;17.25;;;;;;;15.26;96.04;100732.13;4977593;28;20022;-60
2023/07/02 03:03:38;;;;;;;41.67;18.42;;;;;;;15.25;96.24;100735.63;4999088;28;20389;-60
2023/07/02 03:06:04;;;;;;;45.80;18.35;;;;;;;15.24;96.94;100741.78;4997611;28;20028;-60
2023/07/02 03:08:29;;;;;;;50.22;19.67;;;;;;;15.22;96.86;100747.03;4999079;28;20029;-60
2023/07/02 03:10:55;;;;;;;41.47;18.77;;;;;;;15.17;96.85;100753.13;4997155;28;20030;-60
2023/07/02 03:13:20;;;;;;;49.13;19.50;;;;;;;15.15;97.04;100753.13;4997814;28;20445;-60
2023/07/02 03:15:45;;;;;;;44.80;18.55;;;;;;;15.15;97.35;100761.00;4997608;28;20393;-60
2023/07/02 03:18:10;;;;;;;45.67;19.17;;;;;;;15.11;96.83;100749.59;4997389;28;20040;-60
2023/07/02 03:20:36;;;;;;;44.63;19.48;;;;;;;15.11;97.23;100760.09;4978698;28;20371;-60
2023/07/02 03:23:01;;;;;;;43.60;18.05;;;;;;;15.10;97.19;100753.09;4999127;28;20030;-59
2023/07/02 03:25:26;;;;;;;46.70;18.77;;;;;;;15.10;96.96;100757.47;4997186;28;20400;-60
2023/07/02 03:27:52;;;;;;;40.00;17.70;;;;;;;15.10;96.28;100768.81;4998268;28;20022;-60
2023/07/02 03:30:17;;;;;;;43.40;18.88;;;;;;;15.10;97.03;100771.44;4998301;28;20185;-60
2023/07/02 03:32:42;;;;;;;44.13;18.60;;;;;;;15.09;96.30;100771.44;4998051;28;20030;-60
2023/07/02 03:35:08;;;;;;;40.80;18.45;;;;;;;15.07;96.29;100774.06;4997359;28;20052;-60
2023/07/02 03:37:33;;;;;;;47.35;19.05;;;;;;;15.05;97.09;100773.19;4998623;28;20032;-60
2023/07/02 03:39:58;;;;;;;44.83;18.70;;;;;;;15.00;96.89;100774.91;4998282;28;20056;-61
2023/07/02 03:42:24;;;;;;;44.08;19.10;;;;;;;14.99;96.83;100773.19;4998723;28;20022;-60
2023/07/02 03:44:49;;;;;;;47.10;17.90;;;;;;;14.97;97.30;100780.16;4997716;28;20030;-60
2023/07/02 03:47:16;;;;;;;46.10;18.98;;;;;;;14.95;96.47;100779.28;4999455;28;20478;-60
2023/07/02 03:49:41;;;;;;;44.58;18.40;;;;;;;14.93;97.24;100784.53;4997245;28;20030;-60
2023/07/02 03:52:07;;;;;;;46.85;18.33;;;;;;;14.93;96.09;100787.16;4997789;28;20054;-60
2023/07/02 03:54:32;;;;;;;44.20;17.75;;;;;;;14.90;94.99;100787.13;4996798;28;20054;-60
2023/07/02 03:56:57;;;;;;;36.83;16.33;;;;;;;14.84;94.34;100783.59;4997365;28;20053;-60
2023/07/02 03:59:23;;;;;;;43.50;18.02;;;;;;;14.82;94.55;100785.34;4995435;28;20077;-60
2023/07/02 04:01:48;;;;;;;37.78;16.90;;;;;;;14.82;94.44;100791.47;4998060;28;20517;-60
2023/07/02 04:04:13;;;;;;;39.60;16.08;;;;;;;14.85;93.57;100791.47;4997231;28;20484;-60
2023/07/02 04:06:38;;;;;;;42.75;18.10;;;;;;;14.87;93.33;100794.09;4998479;28;20038;-60
2023/07/02 04:09:04;;;;;;;35.53;14.65;;;;;;;14.85;93.06;100796.72;5000739;28;20028;-60
2023/07/02 04:11:29;;;;;;;37.80;15.88;;;;;;;14.83;91.80;100797.56;5002507;28;20026;-60
2023/07/02 04:13:55;;;;;;;35.03;15.38;;;;;;;14.77;91.46;100786.19;5001657;28;20026;-60
2023/07/02 04:16:20;;;;;;;33.50;13.88;;;;;;;14.75;91.13;100790.53;5001921;28;20029;-60
2023/07/02 04:18:45;;;;;;;28.55;13.88;;;;;;;14.71;90.59;100793.13;5002707;28;20022;-60
2023/07/02 04:21:10;;;;;;;38.30;14.68;;;;;;;14.73;90.85;100801.88;5002669;28;20010;-60
2023/07/02 04:23:36;;;;;;;36.17;14.13;;;;;;;14.70;88.85;100802.78;5002683;28;20019;-59
2023/07/02 04:26:01;;;;;;;33.13;13.98;;;;;;;14.67;89.21;100801.84;4985031;28;20112;-60
2023/07/02 04:28:26;;;;;;;30.50;13.40;;;;;;;14.68;89.24;100796.63;5001905;28;20405;-61
2023/07/02 04:30:52;;;;;;;36.10;14.25;;;;;;;14.68;88.20;100804.47;5001347;28;20048;-60
2023/07/02 04:33:18;;;;;;;34.83;14.25;;;;;;;14.68;88.62;100809.72;4983849;28;20037;-60
2023/07/02 04:35:43;;;;;;;33.60;14.70;;;;;;;14.68;87.81;100812.34;4983659;28;20045;-60
2023/07/02 04:38:09;;;;;;;33.08;14.25;;;;;;;14.67;87.26;100810.63;5001553;28;20489;-60
2023/07/02 04:40:34;;;;;;;30.38;13.25;;;;;;;14.70;87.75;100812.34;4999275;28;20033;-60
2023/07/02 04:42:59;;;;;;;32.85;13.30;;;;;;;14.70;87.05;100802.78;5001422;28;20028;-59
2023/07/02 04:45:26;;;;;;;31.42;13.05;;;;;;;14.70;86.91;100815.88;5001766;28;20291;-60
2023/07/02 04:47:52;;;;;;;30.77;12.68;;;;;;;14.74;87.15;100815.03;5001323;28;20018;-60
2023/07/02 04:50:18;;;;;;;30.02;12.52;;;;;;;14.74;86.95;100824.63;5000370;28;20022;-60
2023/07/02 04:52:43;;;;;;;32.10;14.23;;;;;;;14.76;87.38;100823.78;5000192;28;21409;-60
2023/07/02 04:55:09;;;;;;;32.67;13.93;;;;;;;14.78;87.52;100824.66;4999195;28;20026;-60
2023/07/02 04:57:35;;;;;;;30.58;13.65;;;;;;;14.80;87.13;100826.41;5000626;28;20686;-60
2023/07/02 05:00:00;;;;;;;37.55;13.10;;;;;;;14.81;88.01;100826.41;5000533;28;20496;-60
2023/07/02 05:02:25;;;;;;;32.58;13.95;;;;;;;14.87;87.83;100830.81;4999627;28;20049;-60
2023/07/02 05:04:51;;;;;;;32.00;14.05;;;;;;;14.95;86.21;100834.38;5000913;28;20060;-60
2023/07/02 05:07:16;;;;;;;31.73;13.85;;;;;;;14.92;86.82;100837.00;4999112;28;20117;-60
2023/07/02 05:09:42;;;;;;;32.38;13.68;;;;;;;14.92;86.16;100837.00;4999917;28;20034;-60
2023/07/02 05:12:08;;;;;;;32.70;13.00;;;;;;;14.94;86.61;100837.88;4999773;28;20118;-60
2023/07/02 05:14:33;;;;;;;35.70;14.88;;;;;;;14.96;86.24;100843.97;4998943;28;20126;-60
2023/07/02 05:16:58;;;;;;;31.65;12.88;;;;;;;15.00;84.44;100847.53;4994373;28;20116;-60
2023/07/02 05:19:24;;;;;;;31.98;12.48;;;;;;;14.99;83.83;100851.91;5000077;28;20026;-60
2023/07/02 05:21:49;;;;;;;32.15;13.02;;;;;;;14.98;85.51;100844.88;5000658;28;20061;-60
2023/07/02 05:24:14;;;;;;;32.38;12.27;;;;;;;15.04;84.72;100849.28;5000121;28;20064;-60
2023/07/02 05:26:39;;;;;;;28.25;12.13;;;;;;;15.08;83.04;100857.19;4999708;28;20030;-60
2023/07/02 05:29:05;;;;;;;27.80;11.40;;;;;;;15.11;82.68;100858.97;5000960;28;20125;-60
2023/07/02 05:31:30;;;;;;;31.27;12.13;;;;;;;15.15;81.31;100854.59;4999595;28;20041;-60
2023/07/02 05:33:56;;;;;;;30.27;11.68;;;;;;;15.13;81.46;100865.97;5000082;28;20033;-60
2023/07/02 05:36:22;;;;;;;29.33;12.00;;;;;;;15.18;80.98;100862.47;4995188;28;20138;-60
2023/07/02 05:38:47;;;;;;;27.20;11.38;;;;;;;15.22;80.28;100869.50;4999165;28;20030;-60
2023/07/02 05:41:19;;;;;;;30.98;10.25;;;;;;;15.27;79.49;100873.03;4998847;28;20026;-60
2023/07/02 05:43:45;;;;;;;29.92;11.27;;;;;;;15.28;79.31;100874.78;4999631;28;20030;-60
2023/07/02 05:46:12;;;;;;;27.20;10.55;;;;;;;15.30;77.65;100880.91;4999637;28;21118;-61
2023/07/02 05:48:37;;;;;;;25.83;10.40;;;;;;;15.31;78.72;100880.06;5000347;28;20029;-60
2023/07/02 05:51:02;;;;;;;30.08;10.60;;;;;;;15.32;80.07;100876.53;4999174;28;20052;-60
2023/07/02 05:53:28;;;;;;;25.50;9.35;;;;;;;15.40;77.43;100876.59;4999974;28;20021;-59
2023/07/02 05:55:53;;;;;;;29.27;10.52;;;;;;;15.39;77.75;100885.34;4998602;28;20029;-60
2023/07/02 05:58:18;;;;;;;21.45;9.18;;;;;;;15.43;77.55;100887.09;4998588;28;20042;-60
2023/07/02 06:00:48;;;;;;;26.33;8.90;;;;;;;15.48;77.76;100887.97;4999272;28;20523;-60
2023/07/02 06:03:18;;;;;;;24.80;9.63;;;;;;;15.52;77.14;100888.88;5000700;28;20093;-61
2023/07/02 06:05:46;;;;;;;24.73;9.13;;;;;;;15.60;77.34;100881.94;4999776;28;20068;-60
2023/07/02 06:08:11;;;;;;;19.55;9.02;;;;;;;15.74;76.03;100884.56;4999714;28;20030;-61
2023/07/02 06:10:36;;;;;;;25.85;9.43;;;;;;;15.78;75.90;100889.88;4999151;28;20104;-60
2023/07/02 06:13:01;;;;;;;23.65;9.63;;;;;;;15.75;77.03;100897.72;5000591;28;20045;-61
2023/07/02 06:15:27;;;;;;;22.25;8.50;;;;;;;15.75;76.57;100896.84;4999939;28;20159;-60
2023/07/02 06:17:52;;;;;;;24.05;8.55;;;;;;;15.76;75.52;100894.22;4999785;28;20048;-60
2023/07/02 06:20:17;;;;;;;23.73;8.82;;;;;;;15.81;75.27;100900.41;4999712;28;20030;-60
2023/07/02 06:22:42;;;;;;;21.70;8.77;;;;;;;15.81;75.61;100902.16;4999822;28;20030;-60
2023/07/02 06:25:08;;;;;;;19.65;8.13;;;;;;;15.99;73.94;100898.72;4999741;28;20044;-60
2023/07/02 06:27:33;;;;;;;21.80;8.73;;;;;;;15.90;76.50;100906.56;4981059;28;20033;-60
2023/07/02 06:29:58;;;;;;;23.50;8.50;;;;;;;15.95;74.11;100908.31;4999155;28;20559;-60
2023/07/02 06:32:24;;;;;;;25.98;8.20;;;;;;;15.98;74.18;100910.09;4999273;28;20040;-59
2023/07/02 06:34:49;;;;;;;21.13;8.35;;;;;;;16.02;76.37;100917.09;4998550;28;20045;-60
2023/07/02 06:37:14;;;;;;;18.55;8.63;;;;;;;16.03;75.58;100916.22;4998224;28;20033;-60
2023/07/02 06:39:40;;;;;;;20.45;7.40;;;;;;;16.11;75.75;100922.38;4999419;28;20524;-60
2023/07/02 06:42:05;;;;;;;18.42;7.22;;;;;;;16.24;72.34;100917.16;4999450;28;20075;-60
2023/07/02 06:44:30;;;;;;;17.23;6.53;;;;;;;16.23;71.86;100923.28;4999203;28;20117;-60
2023/07/02 06:46:56;;;;;;;20.45;7.25;;;;;;;16.20;73.67;100918.00;4998817;28;20041;-59
2023/07/02 06:49:21;;;;;;;22.52;8.75;;;;;;;16.23;75.60;100920.66;4999443;28;20113;-60
2023/07/02 06:51:46;;;;;;;20.45;7.90;;;;;;;16.33;74.04;100919.78;4997237;28;20563;-60
2023/07/02 06:54:13;;;;;;;19.35;7.18;;;;;;;16.38;72.12;100919.78;4998047;28;20038;-60
2023/07/02 06:56:38;;;;;;;22.08;7.80;;;;;;;16.38;73.10;100927.66;4999001;28;20034;-60
2023/07/02 06:59:03;;;;;;;19.38;8.38;;;;;;;16.35;74.25;100936.41;4998603;28;20084;-59
2023/07/02 07:01:29;;;;;;;17.50;7.00;;;;;;;16.42;72.00;100935.56;4996591;28;20037;-60
2023/07/02 07:03:54;;;;;;;14.32;7.18;;;;;;;16.40;72.79;100946.97;4998124;28;20084;-60
2023/07/02 07:06:20;;;;;;;18.75;7.93;;;;;;;16.49;72.34;100939.94;4997880;28;20519;-59
2023/07/02 07:08:45;;;;;;;22.27;7.45;;;;;;;16.43;73.46;100936.44;4998854;28;20375;-60
2023/07/02 07:11:11;;;;;;;21.80;7.97;;;;;;;16.42;73.48;100942.56;4980724;28;20037;-60
2023/07/02 07:13:36;;;;;;;23.20;7.90;;;;;;;16.54;71.48;100944.34;4998101;28;20026;-59
2023/07/02 07:16:01;;;;;;;23.38;7.47;;;;;;;16.58;71.93;100940.84;4999271;28;20027;-60
2023/07/02 07:18:27;;;;;;;17.65;7.93;;;;;;;16.62;74.00;100943.47;4980105;28;21177;-59
2023/07/02 07:20:55;;;;;;;19.52;7.35;;;;;;;16.72;73.05;100951.38;4998851;28;20053;-60
2023/07/02 07:23:21;;;;;;;18.52;7.07;;;;;;;16.83;68.91;100950.47;4998568;28;20113;-60
2023/07/02 07:25:46;;;;;;;19.65;6.60;;;;;;;16.86;69.49;100946.97;4999121;28;20121;-60
2023/07/02 07:28:15;;;;;;;15.02;5.63;;;;;;;16.90;68.41;100963.66;4998162;28;20445;-60
2023/07/02 07:30:41;;;;;;;16.15;7.18;;;;;;;16.84;69.67;100965.41;4998713;28;20618;-60
2023/07/02 07:33:06;;;;;;;17.20;5.75;;;;;;;16.91;66.03;100960.16;4980919;28;20034;-59
2023/07/02 07:35:32;;;;;;;17.63;6.72;;;;;;;16.81;68.35;100972.41;4996666;28;20028;-59
2023/07/02 07:37:57;;;;;;;17.00;6.68;;;;;;;16.83;69.19;100975.94;4995837;28;20022;-60
2023/07/02 07:40:22;;;;;;;15.75;5.97;;;;;;;16.89;68.70;100980.31;4997171;28;20899;-59
2023/07/02 07:42:48;;;;;;;17.40;6.53;;;;;;;16.94;68.01;100986.47;4999192;28;20036;-59
2023/07/02 07:45:13;;;;;;;14.70;5.53;;;;;;;16.97;66.06;100989.97;5002625;28;20029;-59
2023/07/02 07:47:39;;;;;;;17.10;5.90;;;;;;;16.89;68.04;100985.59;5002099;28;20493;-60
2023/07/02 07:50:09;;;;;;;15.88;5.60;;;;;;;17.00;68.59;100994.38;5002613;28;20080;-59
2023/07/02 07:52:39;;;;;;;16.10;5.72;;;;;;;17.01;68.23;100988.22;5002449;28;20038;-59
2023/07/02 07:55:06;;;;;;;18.67;7.28;;;;;;;17.07;69.05;100984.72;5003080;28;20385;-59
2023/07/02 07:57:31;;;;;;;18.05;6.85;;;;;;;17.17;67.11;100978.56;5002394;28;20318;-60
2023/07/02 07:59:57;;;;;;;12.57;4.25;;;;;;;17.23;66.88;100998.75;5000358;28;20356;-59
2023/07/02 08:02:23;;;;;;;14.50;5.88;;;;;;;17.25;66.31;100986.44;4983748;28;20037;-59
2023/07/02 08:04:48;;;;;;;20.50;6.40;;;;;;;17.25;67.02;100987.34;5002551;28;20027;-60
2023/07/02 08:07:14;;;;;;;15.90;6.32;;;;;;;17.16;67.74;100984.69;5001678;28;20030;-60
2023/07/02 08:09:39;;;;;;;17.25;6.68;;;;;;;17.29;67.50;100991.72;4982802;28;20634;-59
2023/07/02 08:12:04;;;;;;;18.17;6.55;;;;;;;17.21;66.54;100985.59;5001204;28;20034;-59
2023/07/02 08:14:30;;;;;;;13.65;6.05;;;;;;;17.20;67.23;100999.63;5001335;28;20033;-59
2023/07/02 08:16:55;;;;;;;13.88;6.05;;;;;;;17.19;66.21;101006.66;5002133;28;20030;-59
2023/07/02 08:19:21;;;;;;;16.58;5.90;;;;;;;17.24;64.78;101008.41;4999581;28;20081;-60
2023/07/02 08:21:47;;;;;;;14.13;5.63;;;;;;;17.28;64.65;101010.13;4999987;28;20100;-60
2023/07/02 08:24:13;;;;;;;15.95;6.32;;;;;;;17.21;65.58;101012.78;5000418;28;20560;-59
2023/07/02 08:26:39;;;;;;;14.10;5.40;;;;;;;17.34;65.19;101013.63;5000224;28;20536;-59
2023/07/02 08:29:04;;;;;;;18.23;6.40;;;;;;;17.21;65.39;101011.91;5001676;28;20129;-59
2023/07/02 08:31:29;;;;;;;13.07;5.68;;;;;;;17.21;67.48;101012.78;4982521;28;20405;-59
2023/07/02 08:33:55;;;;;;;14.95;6.05;;;;;;;17.24;67.22;101014.53;5001439;28;20033;-59
2023/07/02 08:36:20;;;;;;;16.40;7.10;;;;;;;17.26;68.44;101017.16;5000080;28;20021;-59
2023/07/02 08:38:45;;;;;;;13.68;5.97;;;;;;;17.37;66.11;101013.63;5000462;28;20034;-59
2023/07/02 08:41:12;;;;;;;13.82;6.57;;;;;;;17.36;66.33;101025.03;5000864;28;20029;-59
2023/07/02 08:43:38;;;;;;;19.73;6.65;;;;;;;17.51;66.95;101023.25;5000819;28;20026;-59
2023/07/02 08:46:03;;;;;;;17.13;6.03;;;;;;;17.61;65.99;101026.75;5000270;28;20026;-59
2023/07/02 08:48:29;;;;;;;15.57;6.70;;;;;;;17.64;65.33;101014.47;5001721;28;20025;-59
2023/07/02 08:50:57;;;;;;;14.93;5.65;;;;;;;17.82;65.22;101025.81;5000626;28;20391;-60
2023/07/02 08:53:29;;;;;;;14.00;6.05;;;;;;;17.92;62.68;101024.94;4980036;28;20166;-59
2023/07/02 08:55:59;;;;;;;13.57;5.55;;;;;;;17.89;60.81;101036.34;5001534;28;20026;-59
2023/07/02 08:58:24;;;;;;;18.98;6.00;;;;;;;17.80;59.68;101028.47;4998757;28;20623;-59
2023/07/02 09:01:09;;;;;;;15.70;5.38;;;;;;;17.73;58.14;101021.47;5001162;28;20034;-59
2023/07/02 09:03:38;;;;;;;14.80;5.20;;;;;;;17.59;59.42;101018.00;5000167;28;20516;-59
2023/07/02 09:06:08;;;;;;;12.13;5.45;;;;;;;17.68;60.34;101015.31;5000419;28;20026;-58
2023/07/02 09:08:33;;;;;;;14.75;5.50;;;;;;;17.87;60.47;101019.66;5000773;28;20085;-59
2023/07/02 09:11:06;;;;;;;13.00;5.18;;;;;;;17.98;58.72;101024.03;4999540;28;20037;-59
2023/07/02 09:13:31;;;;;;;14.18;5.60;;;;;;;18.08;55.43;101017.84;5001552;28;20029;-60
2023/07/02 09:15:56;;;;;;;13.75;6.03;;;;;;;18.04;56.54;101024.88;5001089;28;20501;-59
2023/07/02 09:18:24;;;;;;;13.18;4.93;;;;;;;17.98;58.15;101030.19;4999117;28;20054;-62
2023/07/02 09:20:51;;;;;;;14.23;5.53;;;;;;;18.03;55.59;101033.69;4999645;28;21478;-63
2023/07/02 09:23:17;;;;;;;12.48;4.80;;;;;;;17.83;56.59;101033.72;4999565;28;20074;-63
2023/07/02 09:25:42;;;;;;;12.30;4.50;;;;;;;17.81;55.61;101037.25;4999215;28;20533;-63
2023/07/02 09:28:34;;;;;;;13.25;5.05;;;;;;;17.69;58.01;101033.75;5000486;28;20544;-63
2023/07/02 09:30:59;;;;;;;12.20;5.20;;;;;;;17.89;57.84;101024.94;4996629;28;20092;-63
2023/07/02 09:33:26;;;;;;;12.88;5.55;;;;;;;17.97;59.41;101022.28;5000290;28;20497;-63
2023/07/02 09:35:51;;;;;;;14.13;5.93;;;;;;;18.14;56.83;101014.31;5000338;28;20045;-63
2023/07/02 09:38:19;;;;;;;16.30;6.05;;;;;;;18.42;59.29;101005.34;5000152;28;20624;-63
2023/07/02 09:40:49;;;;;;;12.07;5.22;;;;;;;18.56;56.63;101013.16;4992771;28;20026;-62
2023/07/02 09:43:16;;;;;;;14.02;5.25;;;;;;;18.62;55.79;101014.88;4996359;28;20105;-63
2023/07/02 09:45:50;;;;;;;13.57;6.05;;;;;;;18.67;57.74;101022.75;4999285;28;20031;-63
2023/07/02 09:48:16;;;;;;;15.93;6.28;;;;;;;18.65;56.10;101016.63;4999251;28;20490;-63
2023/07/02 09:50:44;;;;;;;11.38;5.68;;;;;;;18.45;57.04;101017.66;4999149;28;20044;-63
2023/07/02 09:53:10;;;;;;;14.65;6.00;;;;;;;18.37;57.62;101024.72;5000326;28;20030;-63
2023/07/02 09:55:36;;;;;;;13.00;5.95;;;;;;;18.40;59.33;101022.06;5000315;28;20029;-63
2023/07/02 09:58:01;;;;;;;12.93;5.53;;;;;;;18.36;57.25;101025.59;4999086;28;20038;-63
2023/07/02 10:00:27;;;;;;;13.02;5.65;;;;;;;18.37;57.22;101027.38;5000015;28;20044;-63
2023/07/02 10:02:52;;;;;;;15.85;6.20;;;;;;;18.25;58.80;101029.19;4999135;28;20029;-63
2023/07/02 10:05:27;;;;;;;15.13;6.22;;;;;;;18.22;58.40;101036.25;4999022;28;20026;-63
2023/07/02 10:07:53;;;;;;;12.18;5.43;;;;;;;18.13;59.26;101031.88;4999041;28;20084;-63
2023/07/02 10:10:31;;;;;;;17.13;5.97;;;;;;;18.38;58.62;101039.69;4998942;28;20466;-63
2023/07/02 10:12:57;;;;;;;13.60;6.40;;;;;;;18.33;58.68;101044.09;5000380;28;20045;-63
2023/07/02 10:15:27;;;;;;;15.63;5.90;;;;;;;18.35;58.84;101048.47;4991315;28;20026;-63
2023/07/02 10:17:57;;;;;;;14.10;6.20;;;;;;;18.25;60.04;101054.69;4992954;28;20022;-63
2023/07/02 10:20:38;;;;;;;10.32;4.43;;;;;;;18.34;57.24;101048.50;4997727;28;20030;-63
2023/07/02 10:23:08;;;;;;;15.68;5.35;;;;;;;18.18;58.15;101047.69;4998553;28;20032;-63
2023/07/02 10:25:37;;;;;;;15.88;6.32;;;;;;;17.99;57.85;101042.50;4997176;28;20041;-63
2023/07/02 10:28:14;;;;;;;14.90;6.00;;;;;;;17.92;59.82;101055.72;4996798;28;20514;-60
2023/07/02 10:30:40;;;;;;;16.48;6.38;;;;;;;17.94;61.29;101052.16;4998598;28;20157;-59
2023/07/02 10:33:15;;;;;;;15.00;6.35;;;;;;;18.07;60.87;101053.00;4994529;28;20050;-60
2023/07/02 10:35:44;;;;;;;14.25;6.28;;;;;;;18.17;61.27;101053.84;4998022;28;20485;-59
2023/07/02 10:38:19;;;;;;;15.25;6.10;;;;;;;18.30;60.90;101055.53;4997410;28;20032;-59
2023/07/02 10:41:00;;;;;;;16.27;6.15;;;;;;;18.67;62.02;101051.78;5047781;23;20065;-94
2023/07/02 10:43:29;;;;;;;17.15;6.85;;;;;;;18.97;58.95;101047.22;5012744;28;20544;-94
2023/07/02 10:46:02;;;;;;;14.68;6.07;;;;;;;19.25;58.43;101045.22;4989671;28;20037;-94
2023/07/02 10:48:28;;;;;;;15.52;6.90;;;;;;;19.24;56.32;101054.03;4999249;28;20023;-94
2023/07/02 10:51:01;;;;;;;15.98;6.75;;;;;;;19.08;56.34;101069.16;4994383;28;20025;-94
2023/07/02 10:53:35;;;;;;;16.42;6.72;;;;;;;18.91;56.71;101061.34;5014422;28;20091;-93
2023/07/02 10:56:01;;;;;;;16.48;6.57;;;;;;;18.73;56.65;101062.34;5011460;28;20021;-93
2023/07/02 10:58:29;;;;;;;14.25;6.68;;;;;;;18.67;58.02;101062.34;4995049;28;20032;-92
2023/07/02 11:00:57;;;;;;;14.68;6.57;;;;;;;18.59;57.60;101063.28;5007360;28;20052;-93
2023/07/02 11:03:26;;;;;;;17.00;7.13;;;;;;;18.55;58.93;101069.47;5014134;28;20026;-93
2023/07/02 11:05:55;;;;;;;17.08;7.07;;;;;;;18.62;59.15;101065.03;4997506;28;20288;-94
2023/07/02 11:08:33;;;;;;;17.35;7.18;;;;;;;18.72;60.82;101060.56;4996242;28;20110;-95
2023/07/02 11:11:09;;;;;;;16.98;7.60;;;;;;;18.87;58.78;101063.16;4991931;28;20050;-95